Emigrant Pass, Nevada
Current Conditions -  °F | °C
As of 4:56 PM on Friday 19 Dec 2014 (Local Time) from KEKO Reporting Station
Light Rain Light Rain  
Wind Chill: 32°   Ceiling: 2200
Heat Index: 36°   Visibility: 9mi
Dew Point: 33°   Wind: 5mph
Humidity: 89%   Direction: 200°SSW
Pressure: 30.12"   Gusts: NA
Location:  40.4796°N, 116.369°W
Report Text: KEKO 200056Z AUTO 20004KT 9SM -RA FEW010 OVC022 02/01 A3012 RMK AO2 RAB22E31B37UPB31E50 SLP219 P0001 T00220006
Loading
Personal Weather Stations






























Interactive Weather Map New forecast layout! Learn more

10-Day Weather Forecast

Advertisements
Track Severe Weather on mobile